sensor_id;sensor_type;location;lat;lon;timestamp;P1;durP1;ratioP1;P2;durP2;ratioP2
10277;SDS011;5184;51.376;7.148;2023-05-13T00:01:57;12.67;;;11.17;;
10277;SDS011;5184;51.376;7.148;2023-05-13T00:04:24;12.60;;;11.23;;
10277;SDS011;5184;51.376;7.148;2023-05-13T00:06:51;12.67;;;11.47;;
10277;SDS011;5184;51.376;7.148;2023-05-13T00:09:18;12.27;;;11.00;;
10277;SDS011;5184;51.376;7.148;2023-05-13T00:11:44;12.07;;;10.87;;
10277;SDS011;5184;51.376;7.148;2023-05-13T00:14:12;11.87;;;10.77;;
10277;SDS011;5184;51.376;7.148;2023-05-13T00:16:39;12.43;;;10.40;;
10277;SDS011;5184;51.376;7.148;2023-05-13T00:19:05;11.70;;;10.50;;
10277;SDS011;5184;51.376;7.148;2023-05-13T00:21:32;11.10;;;10.10;;
10277;SDS011;5184;51.376;7.148;2023-05-13T00:23:59;10.93;;;9.77;;
10277;SDS011;5184;51.376;7.148;2023-05-13T00:26:26;11.17;;;10.17;;
10277;SDS011;5184;51.376;7.148;2023-05-13T00:28:53;10.23;;;9.23;;
10277;SDS011;5184;51.376;7.148;2023-05-13T00:31:19;10.60;;;9.33;;
10277;SDS011;5184;51.376;7.148;2023-05-13T00:33:46;9.77;;;8.77;;
10277;SDS011;5184;51.376;7.148;2023-05-13T00:36:12;10.57;;;9.43;;
10277;SDS011;5184;51.376;7.148;2023-05-13T00:38:39;10.33;;;9.33;;
10277;SDS011;5184;51.376;7.148;2023-05-13T00:41:06;11.00;;;9.73;;
10277;SDS011;5184;51.376;7.148;2023-05-13T00:43:34;10.87;;;9.87;;
10277;SDS011;5184;51.376;7.148;2023-05-13T00:46:01;11.13;;;10.13;;
10277;SDS011;5184;51.376;7.148;2023-05-13T00:48:28;10.37;;;9.37;;
10277;SDS011;5184;51.376;7.148;2023-05-13T00:50:54;10.10;;;9.20;;
10277;SDS011;5184;51.376;7.148;2023-05-13T00:53:21;11.43;;;10.17;;
10277;SDS011;5184;51.376;7.148;2023-05-13T00:55:47;11.93;;;10.73;;
10277;SDS011;5184;51.376;7.148;2023-05-13T00:58:14;10.87;;;9.87;;
10277;SDS011;5184;51.376;7.148;2023-05-13T01:00:48;11.20;;;10.17;;
10277;SDS011;5184;51.376;7.148;2023-05-13T01:03:14;10.13;;;9.23;;
10277;SDS011;5184;51.376;7.148;2023-05-13T01:05:44;11.90;;;10.70;;
10277;SDS011;5184;51.376;7.148;2023-05-13T01:08:28;11.57;;;10.47;;
10277;SDS011;5184;51.376;7.148;2023-05-13T01:10:58;12.13;;;11.03;;
10277;SDS011;5184;51.376;7.148;2023-05-13T01:13:26;12.10;;;10.90;;
10277;SDS011;5184;51.376;7.148;2023-05-13T01:16:28;12.80;;;11.60;;
10277;SDS011;5184;51.376;7.148;2023-05-13T01:18:35;12.10;;;11.00;;
10277;SDS011;5184;51.376;7.148;2023-05-13T01:21:03;11.83;;;10.73;;
10277;SDS011;5184;51.376;7.148;2023-05-13T01:23:30;12.53;;;11.33;;
10277;SDS011;5184;51.376;7.148;2023-05-13T01:25:57;11.10;;;10.00;;
10277;SDS011;5184;51.376;7.148;2023-05-13T01:28:24;12.67;;;10.97;;
10277;SDS011;5184;51.376;7.148;2023-05-13T01:30:51;11.83;;;10.83;;
10277;SDS011;5184;51.376;7.148;2023-05-13T01:33:17;11.87;;;10.63;;
10277;SDS011;5184;51.376;7.148;2023-05-13T01:35:44;12.40;;;11.20;;
10277;SDS011;5184;51.376;7.148;2023-05-13T01:38:10;12.37;;;11.27;;
10277;SDS011;5184;51.376;7.148;2023-05-13T01:40:38;11.50;;;10.47;;
10277;SDS011;5184;51.376;7.148;2023-05-13T01:43:04;12.73;;;11.60;;
10277;SDS011;5184;51.376;7.148;2023-05-13T01:45:31;12.17;;;10.97;;
10277;SDS011;5184;51.376;7.148;2023-05-13T01:47:58;12.97;;;11.53;;
10277;SDS011;5184;51.376;7.148;2023-05-13T01:50:25;12.33;;;11.13;;
10277;SDS011;5184;51.376;7.148;2023-05-13T01:52:52;12.97;;;11.60;;
10277;SDS011;5184;51.376;7.148;2023-05-13T01:55:18;12.27;;;11.00;;
10277;SDS011;5184;51.376;7.148;2023-05-13T01:57:45;12.17;;;10.87;;
10277;SDS011;5184;51.376;7.148;2023-05-13T02:00:12;11.07;;;10.07;;
10277;SDS011;5184;51.376;7.148;2023-05-13T02:02:39;11.50;;;10.40;;
10277;SDS011;5184;51.376;7.148;2023-05-13T02:05:06;11.33;;;10.30;;
10277;SDS011;5184;51.376;7.148;2023-05-13T02:07:33;12.13;;;10.93;;
10277;SDS011;5184;51.376;7.148;2023-05-13T02:10:00;12.70;;;11.47;;
10277;SDS011;5184;51.376;7.148;2023-05-13T02:12:26;12.47;;;11.37;;
10277;SDS011;5184;51.376;7.148;2023-05-13T02:14:53;12.53;;;11.30;;
10277;SDS011;5184;51.376;7.148;2023-05-13T02:17:20;12.07;;;10.93;;
10277;SDS011;5184;51.376;7.148;2023-05-13T02:19:48;11.63;;;10.47;;
10277;SDS011;5184;51.376;7.148;2023-05-13T02:22:14;12.33;;;11.23;;
10277;SDS011;5184;51.376;7.148;2023-05-13T02:24:41;13.60;;;11.70;;
10277;SDS011;5184;51.376;7.148;2023-05-13T02:27:07;10.97;;;10.07;;
10277;SDS011;5184;51.376;7.148;2023-05-13T02:29:34;11.73;;;10.57;;
10277;SDS011;5184;51.376;7.148;2023-05-13T02:32:00;13.40;;;11.20;;
10277;SDS011;5184;51.376;7.148;2023-05-13T02:34:28;11.83;;;10.83;;
10277;SDS011;5184;51.376;7.148;2023-05-13T02:36:54;12.93;;;11.73;;
10277;SDS011;5184;51.376;7.148;2023-05-13T02:39:21;12.03;;;10.93;;
10277;SDS011;5184;51.376;7.148;2023-05-13T02:41:48;13.77;;;11.83;;
10277;SDS011;5184;51.376;7.148;2023-05-13T02:44:14;12.80;;;11.37;;
10277;SDS011;5184;51.376;7.148;2023-05-13T02:46:41;12.27;;;11.07;;
10277;SDS011;5184;51.376;7.148;2023-05-13T02:49:08;13.70;;;12.33;;
10277;SDS011;5184;51.376;7.148;2023-05-13T02:51:35;12.37;;;11.17;;
10277;SDS011;5184;51.376;7.148;2023-05-13T02:54:01;13.60;;;12.20;;
10277;SDS011;5184;51.376;7.148;2023-05-13T02:56:28;13.03;;;11.80;;
10277;SDS011;5184;51.376;7.148;2023-05-13T02:58:55;14.37;;;12.30;;
10277;SDS011;5184;51.376;7.148;2023-05-13T03:01:21;11.93;;;10.83;;
10277;SDS011;5184;51.376;7.148;2023-05-13T03:03:48;12.33;;;11.13;;
10277;SDS011;5184;51.376;7.148;2023-05-13T03:06:16;12.17;;;10.97;;
10277;SDS011;5184;51.376;7.148;2023-05-13T03:08:42;12.97;;;11.60;;
10277;SDS011;5184;51.376;7.148;2023-05-13T03:11:09;12.97;;;11.67;;
10277;SDS011;5184;51.376;7.148;2023-05-13T03:13:36;11.80;;;10.70;;
10277;SDS011;5184;51.376;7.148;2023-05-13T03:16:04;12.40;;;11.27;;
10277;SDS011;5184;51.376;7.148;2023-05-13T03:18:31;12.33;;;10.70;;
10277;SDS011;5184;51.376;7.148;2023-05-13T03:20:57;11.63;;;10.50;;
10277;SDS011;5184;51.376;7.148;2023-05-13T03:23:24;12.23;;;10.93;;
10277;SDS011;5184;51.376;7.148;2023-05-13T03:25:51;12.87;;;11.57;;
10277;SDS011;5184;51.376;7.148;2023-05-13T03:28:17;13.07;;;11.87;;
10277;SDS011;5184;51.376;7.148;2023-05-13T03:30:44;13.73;;;11.93;;
10277;SDS011;5184;51.376;7.148;2023-05-13T03:33:11;14.10;;;12.57;;
10277;SDS011;5184;51.376;7.148;2023-05-13T03:35:38;13.80;;;12.40;;
10277;SDS011;5184;51.376;7.148;2023-05-13T03:38:04;15.33;;;12.97;;
10277;SDS011;5184;51.376;7.148;2023-05-13T03:40:31;14.83;;;13.10;;
10277;SDS011;5184;51.376;7.148;2023-05-13T03:42:58;14.90;;;13.13;;
10277;SDS011;5184;51.376;7.148;2023-05-13T03:45:24;15.00;;;13.50;;
10277;SDS011;5184;51.376;7.148;2023-05-13T03:47:52;14.47;;;12.97;;
10277;SDS011;5184;51.376;7.148;2023-05-13T03:50:18;16.40;;;14.70;;
10277;SDS011;5184;51.376;7.148;2023-05-13T03:52:45;18.03;;;15.00;;
10277;SDS011;5184;51.376;7.148;2023-05-13T03:55:11;16.03;;;14.43;;
10277;SDS011;5184;51.376;7.148;2023-05-13T03:57:38;16.07;;;14.10;;
10277;SDS011;5184;51.376;7.148;2023-05-13T04:00:05;14.80;;;12.97;;
10277;SDS011;5184;51.376;7.148;2023-05-13T04:02:32;15.40;;;13.77;;
10277;SDS011;5184;51.376;7.148;2023-05-13T04:04:59;16.90;;;13.67;;
10277;SDS011;5184;51.376;7.148;2023-05-13T04:07:26;15.27;;;13.73;;
10277;SDS011;5184;51.376;7.148;2023-05-13T04:09:53;16.07;;;14.57;;
10277;SDS011;5184;51.376;7.148;2023-05-13T04:12:21;14.90;;;13.53;;
10277;SDS011;5184;51.376;7.148;2023-05-13T04:14:47;15.20;;;13.17;;
10277;SDS011;5184;51.376;7.148;2023-05-13T04:17:14;16.40;;;14.77;;
10277;SDS011;5184;51.376;7.148;2023-05-13T04:19:40;19.47;;;14.47;;
10277;SDS011;5184;51.376;7.148;2023-05-13T04:22:07;17.03;;;14.17;;
10277;SDS011;5184;51.376;7.148;2023-05-13T04:24:34;16.77;;;14.60;;
10277;SDS011;5184;51.376;7.148;2023-05-13T04:27:01;16.30;;;14.57;;
10277;SDS011;5184;51.376;7.148;2023-05-13T04:29:28;17.53;;;15.73;;
10277;SDS011;5184;51.376;7.148;2023-05-13T04:31:54;16.97;;;15.37;;
10277;SDS011;5184;51.376;7.148;2023-05-13T04:34:21;18.63;;;16.67;;
10277;SDS011;5184;51.376;7.148;2023-05-13T04:36:47;17.47;;;15.70;;
10277;SDS011;5184;51.376;7.148;2023-05-13T04:39:14;16.03;;;14.10;;
10277;SDS011;5184;51.376;7.148;2023-05-13T04:41:41;16.70;;;15.00;;
10277;SDS011;5184;51.376;7.148;2023-05-13T04:44:08;16.33;;;14.73;;
10277;SDS011;5184;51.376;7.148;2023-05-13T04:46:35;16.00;;;14.17;;
10277;SDS011;5184;51.376;7.148;2023-05-13T04:49:01;14.90;;;13.07;;
10277;SDS011;5184;51.376;7.148;2023-05-13T04:51:28;14.03;;;12.70;;
10277;SDS011;5184;51.376;7.148;2023-05-13T04:53:54;15.67;;;14.10;;
10277;SDS011;5184;51.376;7.148;2023-05-13T04:56:22;16.23;;;13.17;;
10277;SDS011;5184;51.376;7.148;2023-05-13T04:58:48;15.30;;;13.80;;
10277;SDS011;5184;51.376;7.148;2023-05-13T05:01:15;15.63;;;13.80;;
10277;SDS011;5184;51.376;7.148;2023-05-13T05:03:41;15.37;;;13.77;;
10277;SDS011;5184;51.376;7.148;2023-05-13T05:06:09;18.33;;;13.97;;
10277;SDS011;5184;51.376;7.148;2023-05-13T05:08:36;15.63;;;14.00;;
10277;SDS011;5184;51.376;7.148;2023-05-13T05:11:04;16.37;;;14.67;;
10277;SDS011;5184;51.376;7.148;2023-05-13T05:13:30;14.93;;;13.53;;
10277;SDS011;5184;51.376;7.148;2023-05-13T05:15:57;15.40;;;13.33;;
10277;SDS011;5184;51.376;7.148;2023-05-13T05:18:23;15.97;;;14.27;;
10277;SDS011;5184;51.376;7.148;2023-05-13T05:20:50;13.77;;;11.73;;
10277;SDS011;5184;51.376;7.148;2023-05-13T05:23:17;14.60;;;13.20;;
10277;SDS011;5184;51.376;7.148;2023-05-13T05:25:44;15.30;;;13.90;;
10277;SDS011;5184;51.376;7.148;2023-05-13T05:28:11;15.33;;;13.77;;
10277;SDS011;5184;51.376;7.148;2023-05-13T05:30:37;16.20;;;14.50;;
10277;SDS011;5184;51.376;7.148;2023-05-13T05:33:04;16.60;;;14.67;;
10277;SDS011;5184;51.376;7.148;2023-05-13T05:35:30;15.60;;;14.00;;
10277;SDS011;5184;51.376;7.148;2023-05-13T05:37:58;17.37;;;15.23;;
10277;SDS011;5184;51.376;7.148;2023-05-13T05:40:25;16.87;;;15.17;;
10277;SDS011;5184;51.376;7.148;2023-05-13T05:42:52;18.50;;;16.27;;
10277;SDS011;5184;51.376;7.148;2023-05-13T05:45:18;19.63;;;17.57;;
10277;SDS011;5184;51.376;7.148;2023-05-13T05:47:45;18.67;;;16.50;;
10277;SDS011;5184;51.376;7.148;2023-05-13T05:50:11;21.73;;;19.40;;
10277;SDS011;5184;51.376;7.148;2023-05-13T05:52:38;21.00;;;18.80;;
10277;SDS011;5184;51.376;7.148;2023-05-13T05:55:05;23.40;;;20.90;;
10277;SDS011;5184;51.376;7.148;2023-05-13T05:57:33;24.30;;;21.80;;
10277;SDS011;5184;51.376;7.148;2023-05-13T06:00:00;23.30;;;21.00;;
10277;SDS011;5184;51.376;7.148;2023-05-13T06:02:27;26.87;;;24.00;;
10277;SDS011;5184;51.376;7.148;2023-05-13T06:04:53;26.50;;;23.80;;
10277;SDS011;5184;51.376;7.148;2023-05-13T06:07:20;26.73;;;23.80;;
10277;SDS011;5184;51.376;7.148;2023-05-13T06:09:47;27.70;;;24.73;;
10277;SDS011;5184;51.376;7.148;2023-05-13T06:12:15;25.87;;;23.23;;
10277;SDS011;5184;51.376;7.148;2023-05-13T06:14:41;26.87;;;23.77;;
10277;SDS011;5184;51.376;7.148;2023-05-13T06:17:08;26.50;;;23.70;;
10277;SDS011;5184;51.376;7.148;2023-05-13T06:19:34;24.83;;;22.33;;
10277;SDS011;5184;51.376;7.148;2023-05-13T06:22:02;22.93;;;20.30;;
10277;SDS011;5184;51.376;7.148;2023-05-13T06:24:28;25.77;;;21.73;;
10277;SDS011;5184;51.376;7.148;2023-05-13T06:26:55;23.60;;;21.10;;
10277;SDS011;5184;51.376;7.148;2023-05-13T06:29:22;25.30;;;22.77;;
10277;SDS011;5184;51.376;7.148;2023-05-13T06:31:48;25.00;;;22.50;;
10277;SDS011;5184;51.376;7.148;2023-05-13T06:34:15;23.73;;;21.43;;
10277;SDS011;5184;51.376;7.148;2023-05-13T06:36:43;24.27;;;21.97;;
10277;SDS011;5184;51.376;7.148;2023-05-13T06:39:10;23.63;;;21.33;;
10277;SDS011;5184;51.376;7.148;2023-05-13T06:41:37;23.13;;;20.93;;
10277;SDS011;5184;51.376;7.148;2023-05-13T06:44:04;24.60;;;21.97;;
10277;SDS011;5184;51.376;7.148;2023-05-13T06:46:30;24.93;;;22.30;;
10277;SDS011;5184;51.376;7.148;2023-05-13T06:48:57;24.63;;;22.23;;
10277;SDS011;5184;51.376;7.148;2023-05-13T06:51:24;26.17;;;23.57;;
10277;SDS011;5184;51.376;7.148;2023-05-13T06:53:50;25.90;;;23.20;;
10277;SDS011;5184;51.376;7.148;2023-05-13T06:56:16;23.93;;;21.60;;
10277;SDS011;5184;51.376;7.148;2023-05-13T06:58:44;24.20;;;21.60;;
10277;SDS011;5184;51.376;7.148;2023-05-13T07:01:11;25.30;;;23.00;;
10277;SDS011;5184;51.376;7.148;2023-05-13T07:03:38;25.13;;;22.63;;
10277;SDS011;5184;51.376;7.148;2023-05-13T07:06:04;24.37;;;21.77;;
10277;SDS011;5184;51.376;7.148;2023-05-13T07:08:31;21.87;;;19.67;;
10277;SDS011;5184;51.376;7.148;2023-05-13T07:10:58;23.27;;;20.97;;
10277;SDS011;5184;51.376;7.148;2023-05-13T07:13:25;22.73;;;20.13;;
10277;SDS011;5184;51.376;7.148;2023-05-13T07:15:52;21.53;;;19.43;;
10277;SDS011;5184;51.376;7.148;2023-05-13T07:18:19;22.17;;;19.90;;
10277;SDS011;5184;51.376;7.148;2023-05-13T07:20:46;21.00;;;18.80;;
10277;SDS011;5184;51.376;7.148;2023-05-13T07:23:12;19.87;;;17.87;;
10277;SDS011;5184;51.376;7.148;2023-05-13T07:25:39;19.43;;;17.47;;
10277;SDS011;5184;51.376;7.148;2023-05-13T07:28:05;19.63;;;17.73;;
10277;SDS011;5184;51.376;7.148;2023-05-13T07:30:33;19.13;;;17.33;;
10277;SDS011;5184;51.376;7.148;2023-05-13T07:32:59;18.20;;;16.37;;
10277;SDS011;5184;51.376;7.148;2023-05-13T07:35:26;18.33;;;16.63;;
10277;SDS011;5184;51.376;7.148;2023-05-13T07:37:52;18.70;;;16.70;;
10277;SDS011;5184;51.376;7.148;2023-05-13T07:40:20;72.83;;;33.33;;
10277;SDS011;5184;51.376;7.148;2023-05-13T07:42:47;17.83;;;16.13;;
10277;SDS011;5184;51.376;7.148;2023-05-13T07:45:14;18.10;;;16.27;;
10277;SDS011;5184;51.376;7.148;2023-05-13T07:47:40;77.67;;;27.83;;
10277;SDS011;5184;51.376;7.148;2023-05-13T07:50:07;21.77;;;15.57;;
10277;SDS011;5184;51.376;7.148;2023-05-13T07:52:34;17.10;;;15.37;;
10277;SDS011;5184;51.376;7.148;2023-05-13T07:55:00;15.93;;;14.33;;
10277;SDS011;5184;51.376;7.148;2023-05-13T07:57:27;17.17;;;15.10;;
10277;SDS011;5184;51.376;7.148;2023-05-13T07:59:53;17.47;;;15.00;;
10277;SDS011;5184;51.376;7.148;2023-05-13T08:02:20;18.10;;;14.93;;
10277;SDS011;5184;51.376;7.148;2023-05-13T08:04:47;15.87;;;14.37;;
10277;SDS011;5184;51.376;7.148;2023-05-13T08:07:15;15.40;;;13.80;;
10277;SDS011;5184;51.376;7.148;2023-05-13T08:09:41;16.03;;;14.50;;
10277;SDS011;5184;51.376;7.148;2023-05-13T08:12:08;16.20;;;14.43;;
10277;SDS011;5184;51.376;7.148;2023-05-13T08:14:35;15.97;;;14.27;;
10277;SDS011;5184;51.376;7.148;2023-05-13T08:17:03;16.23;;;14.63;;
10277;SDS011;5184;51.376;7.148;2023-05-13T08:19:29;14.37;;;12.20;;
10277;SDS011;5184;51.376;7.148;2023-05-13T08:21:55;11.63;;;10.53;;
10277;SDS011;5184;51.376;7.148;2023-05-13T08:24:22;12.30;;;10.90;;
10277;SDS011;5184;51.376;7.148;2023-05-13T08:26:48;12.67;;;11.37;;
10277;SDS011;5184;51.376;7.148;2023-05-13T08:29:16;12.27;;;10.93;;
10277;SDS011;5184;51.376;7.148;2023-05-13T08:31:43;15.67;;;10.37;;
10277;SDS011;5184;51.376;7.148;2023-05-13T08:34:10;12.40;;;11.10;;
10277;SDS011;5184;51.376;7.148;2023-05-13T08:36:36;13.33;;;10.83;;
10277;SDS011;5184;51.376;7.148;2023-05-13T08:39:03;12.30;;;10.27;;
10277;SDS011;5184;51.376;7.148;2023-05-13T08:41:30;13.17;;;10.67;;
10277;SDS011;5184;51.376;7.148;2023-05-13T08:43:58;10.97;;;9.97;;
10277;SDS011;5184;51.376;7.148;2023-05-13T08:46:25;12.03;;;10.70;;
10277;SDS011;5184;51.376;7.148;2023-05-13T08:48:51;10.27;;;9.13;;
10277;SDS011;5184;51.376;7.148;2023-05-13T08:51:17;10.10;;;8.97;;
10277;SDS011;5184;51.376;7.148;2023-05-13T08:53:44;10.73;;;9.63;;
10277;SDS011;5184;51.376;7.148;2023-05-13T08:56:11;10.30;;;9.20;;
10277;SDS011;5184;51.376;7.148;2023-05-13T08:58:38;10.47;;;9.37;;
10277;SDS011;5184;51.376;7.148;2023-05-13T09:01:05;10.30;;;8.80;;
10277;SDS011;5184;51.376;7.148;2023-05-13T09:03:33;9.43;;;8.63;;
10277;SDS011;5184;51.376;7.148;2023-05-13T09:06:00;9.27;;;7.83;;
10277;SDS011;5184;51.376;7.148;2023-05-13T09:08:26;8.93;;;8.03;;
10277;SDS011;5184;51.376;7.148;2023-05-13T09:10:52;9.70;;;6.80;;
10277;SDS011;5184;51.376;7.148;2023-05-13T09:13:19;8.20;;;7.03;;
10277;SDS011;5184;51.376;7.148;2023-05-13T09:15:46;7.57;;;6.60;;
10277;SDS011;5184;51.376;7.148;2023-05-13T09:18:13;6.97;;;6.37;;
10277;SDS011;5184;51.376;7.148;2023-05-13T09:20:40;6.53;;;5.93;;
10277;SDS011;5184;51.376;7.148;2023-05-13T09:23:08;6.50;;;5.90;;
10277;SDS011;5184;51.376;7.148;2023-05-13T09:25:35;7.27;;;6.50;;
10277;SDS011;5184;51.376;7.148;2023-05-13T09:28:04;7.13;;;6.00;;
10277;SDS011;5184;51.376;7.148;2023-05-13T09:30:31;8.17;;;6.90;;
10277;SDS011;5184;51.376;7.148;2023-05-13T09:33:04;7.73;;;7.03;;
10277;SDS011;5184;51.376;7.148;2023-05-13T09:35:31;6.90;;;6.20;;
10277;SDS011;5184;51.376;7.148;2023-05-13T09:37:58;6.07;;;5.50;;
10277;SDS011;5184;51.376;7.148;2023-05-13T09:40:25;7.53;;;6.27;;
10277;SDS011;5184;51.376;7.148;2023-05-13T09:42:55;8.03;;;6.33;;
10277;SDS011;5184;51.376;7.148;2023-05-13T09:45:18;6.47;;;5.80;;
10277;SDS011;5184;51.376;7.148;2023-05-13T09:47:49;8.00;;;6.70;;
10277;SDS011;5184;51.376;7.148;2023-05-13T09:50:11;6.47;;;5.87;;
10277;SDS011;5184;51.376;7.148;2023-05-13T09:52:38;8.20;;;5.90;;
10277;SDS011;5184;51.376;7.148;2023-05-13T09:55:08;6.37;;;5.63;;
10277;SDS011;5184;51.376;7.148;2023-05-13T09:57:34;7.20;;;6.00;;
10277;SDS011;5184;51.376;7.148;2023-05-13T10:00:01;6.20;;;5.60;;
10277;SDS011;5184;51.376;7.148;2023-05-13T10:02:27;14.80;;;5.80;;
10277;SDS011;5184;51.376;7.148;2023-05-13T10:04:55;7.20;;;4.93;;
10277;SDS011;5184;51.376;7.148;2023-05-13T10:07:22;6.37;;;4.87;;
10277;SDS011;5184;51.376;7.148;2023-05-13T10:09:50;7.03;;;5.10;;
10277;SDS011;5184;51.376;7.148;2023-05-13T10:12:17;5.60;;;5.10;;
10277;SDS011;5184;51.376;7.148;2023-05-13T10:14:43;5.33;;;4.57;;
10277;SDS011;5184;51.376;7.148;2023-05-13T10:17:11;8.47;;;5.30;;
10277;SDS011;5184;51.376;7.148;2023-05-13T10:19:38;6.13;;;4.97;;
10277;SDS011;5184;51.376;7.148;2023-05-13T10:22:05;9.73;;;4.73;;
10277;SDS011;5184;51.376;7.148;2023-05-13T10:24:31;5.30;;;4.80;;
10277;SDS011;5184;51.376;7.148;2023-05-13T10:26:58;9.47;;;5.10;;
10277;SDS011;5184;51.376;7.148;2023-05-13T10:29:25;6.60;;;4.67;;
10277;SDS011;5184;51.376;7.148;2023-05-13T10:31:53;5.13;;;4.50;;
10277;SDS011;5184;51.376;7.148;2023-05-13T10:34:19;6.77;;;5.17;;
10277;SDS011;5184;51.376;7.148;2023-05-13T10:36:52;6.17;;;4.83;;
10277;SDS011;5184;51.376;7.148;2023-05-13T10:39:22;8.90;;;4.30;;
10277;SDS011;5184;51.376;7.148;2023-05-13T10:44:21;5.83;;;4.63;;
10277;SDS011;5184;51.376;7.148;2023-05-13T10:46:49;8.37;;;4.57;;
10277;SDS011;5184;51.376;7.148;2023-05-13T10:49:15;4.97;;;4.47;;
10277;SDS011;5184;51.376;7.148;2023-05-13T10:51:44;5.83;;;4.40;;
10277;SDS011;5184;51.376;7.148;2023-05-13T10:54:16;5.77;;;4.60;;
10277;SDS011;5184;51.376;7.148;2023-05-13T10:56:36;5.30;;;4.67;;
10277;SDS011;5184;51.376;7.148;2023-05-13T10:59:03;5.40;;;4.90;;
10277;SDS011;5184;51.376;7.148;2023-05-13T11:01:34;6.63;;;4.53;;
10277;SDS011;5184;51.376;7.148;2023-05-13T11:04:00;6.07;;;4.57;;
10277;SDS011;5184;51.376;7.148;2023-05-13T11:06:28;5.30;;;4.77;;
10277;SDS011;5184;51.376;7.148;2023-05-13T11:08:55;6.77;;;5.13;;
10277;SDS011;5184;51.376;7.148;2023-05-13T11:11:25;6.70;;;4.43;;
10277;SDS011;5184;51.376;7.148;2023-05-13T11:13:52;7.60;;;5.47;;
10277;SDS011;5184;51.376;7.148;2023-05-13T11:16:19;5.63;;;4.70;;
10277;SDS011;5184;51.376;7.148;2023-05-13T11:18:45;6.07;;;5.43;;
10277;SDS011;5184;51.376;7.148;2023-05-13T11:21:11;5.73;;;5.13;;
10277;SDS011;5184;51.376;7.148;2023-05-13T11:26:14;7.73;;;5.00;;
10277;SDS011;5184;51.376;7.148;2023-05-13T11:31:18;7.47;;;5.00;;
10277;SDS011;5184;51.376;7.148;2023-05-13T11:36:28;6.87;;;4.70;;
10277;SDS011;5184;51.376;7.148;2023-05-13T11:38:51;5.27;;;4.77;;
10277;SDS011;5184;51.376;7.148;2023-05-13T11:41:18;6.40;;;4.93;;
10277;SDS011;5184;51.376;7.148;2023-05-13T11:43:44;7.00;;;4.67;;
10277;SDS011;5184;51.376;7.148;2023-05-13T11:46:11;5.03;;;4.53;;
10277;SDS011;5184;51.376;7.148;2023-05-13T11:48:37;6.57;;;4.50;;
10277;SDS011;5184;51.376;7.148;2023-05-13T11:51:04;5.57;;;4.93;;
10277;SDS011;5184;51.376;7.148;2023-05-13T11:53:31;6.20;;;4.80;;
10277;SDS011;5184;51.376;7.148;2023-05-13T11:56:07;5.37;;;4.60;;
10277;SDS011;5184;51.376;7.148;2023-05-13T11:58:25;4.60;;;4.20;;
10277;SDS011;5184;51.376;7.148;2023-05-13T12:00:53;6.10;;;4.87;;
10277;SDS011;5184;51.376;7.148;2023-05-13T12:03:18;5.43;;;4.90;;
10277;SDS011;5184;51.376;7.148;2023-05-13T12:05:46;6.10;;;4.60;;
10277;SDS011;5184;51.376;7.148;2023-05-13T12:08:13;5.33;;;4.30;;
10277;SDS011;5184;51.376;7.148;2023-05-13T12:10:42;5.57;;;4.10;;
10277;SDS011;5184;51.376;7.148;2023-05-13T12:13:08;8.83;;;5.33;;
10277;SDS011;5184;51.376;7.148;2023-05-13T12:15:35;5.33;;;4.50;;
10277;SDS011;5184;51.376;7.148;2023-05-13T12:18:01;5.07;;;4.57;;
10277;SDS011;5184;51.376;7.148;2023-05-13T12:20:28;6.17;;;4.20;;
10277;SDS011;5184;51.376;7.148;2023-05-13T12:22:55;9.77;;;4.80;;
10277;SDS011;5184;51.376;7.148;2023-05-13T12:28:07;6.30;;;4.73;;
10277;SDS011;5184;51.376;7.148;2023-05-13T12:30:49;6.87;;;4.13;;
10277;SDS011;5184;51.376;7.148;2023-05-13T12:33:15;8.57;;;4.30;;
10277;SDS011;5184;51.376;7.148;2023-05-13T12:35:42;6.20;;;4.20;;
10277;SDS011;5184;51.376;7.148;2023-05-13T12:38:12;6.17;;;4.37;;
10277;SDS011;5184;51.376;7.148;2023-05-13T12:40:35;4.90;;;4.03;;
10277;SDS011;5184;51.376;7.148;2023-05-13T12:43:03;6.03;;;4.10;;
10277;SDS011;5184;51.376;7.148;2023-05-13T12:45:31;5.10;;;3.70;;
10277;SDS011;5184;51.376;7.148;2023-05-13T12:47:58;5.87;;;4.63;;
10277;SDS011;5184;51.376;7.148;2023-05-13T12:50:24;5.10;;;3.83;;
10277;SDS011;5184;51.376;7.148;2023-05-13T12:52:51;5.07;;;3.60;;
10277;SDS011;5184;51.376;7.148;2023-05-13T12:55:18;4.33;;;3.93;;
10277;SDS011;5184;51.376;7.148;2023-05-13T13:00:22;4.43;;;4.00;;
10277;SDS011;5184;51.376;7.148;2023-05-13T13:02:48;5.57;;;3.90;;
10277;SDS011;5184;51.376;7.148;2023-05-13T13:05:15;5.03;;;4.00;;
10277;SDS011;5184;51.376;7.148;2023-05-13T13:07:42;4.27;;;3.83;;
10277;SDS011;5184;51.376;7.148;2023-05-13T13:10:10;3.80;;;3.50;;
10277;SDS011;5184;51.376;7.148;2023-05-13T13:12:36;4.40;;;3.40;;
10277;SDS011;5184;51.376;7.148;2023-05-13T13:15:04;4.37;;;3.53;;
10277;SDS011;5184;51.376;7.148;2023-05-13T13:17:31;4.17;;;3.70;;
10277;SDS011;5184;51.376;7.148;2023-05-13T13:19:59;5.20;;;4.00;;
10277;SDS011;5184;51.376;7.148;2023-05-13T13:22:26;4.23;;;3.70;;
10277;SDS011;5184;51.376;7.148;2023-05-13T13:24:53;4.97;;;3.70;;
10277;SDS011;5184;51.376;7.148;2023-05-13T13:27:20;5.10;;;4.23;;
10277;SDS011;5184;51.376;7.148;2023-05-13T13:29:47;6.67;;;3.90;;
10277;SDS011;5184;51.376;7.148;2023-05-13T13:32:14;3.83;;;3.23;;
10277;SDS011;5184;51.376;7.148;2023-05-13T13:34:42;4.80;;;3.70;;
10277;SDS011;5184;51.376;7.148;2023-05-13T13:37:09;4.73;;;3.90;;
10277;SDS011;5184;51.376;7.148;2023-05-13T13:39:36;4.53;;;4.13;;
10277;SDS011;5184;51.376;7.148;2023-05-13T13:42:04;6.37;;;4.10;;
10277;SDS011;5184;51.376;7.148;2023-05-13T13:44:30;4.63;;;4.13;;
10277;SDS011;5184;51.376;7.148;2023-05-13T13:46:57;4.50;;;4.10;;
10277;SDS011;5184;51.376;7.148;2023-05-13T13:49:24;4.43;;;4.03;;
10277;SDS011;5184;51.376;7.148;2023-05-13T13:51:51;5.27;;;4.03;;
10277;SDS011;5184;51.376;7.148;2023-05-13T13:54:18;4.10;;;3.70;;
10277;SDS011;5184;51.376;7.148;2023-05-13T13:56:46;4.30;;;3.90;;
10277;SDS011;5184;51.376;7.148;2023-05-13T13:59:12;4.70;;;3.43;;
10277;SDS011;5184;51.376;7.148;2023-05-13T14:01:39;4.60;;;3.80;;
10277;SDS011;5184;51.376;7.148;2023-05-13T14:04:11;4.53;;;3.20;;
10277;SDS011;5184;51.376;7.148;2023-05-13T14:06:37;3.67;;;3.33;;
10277;SDS011;5184;51.376;7.148;2023-05-13T14:09:04;6.10;;;3.40;;
10277;SDS011;5184;51.376;7.148;2023-05-13T14:11:30;4.67;;;3.83;;
10277;SDS011;5184;51.376;7.148;2023-05-13T14:13:57;5.60;;;3.83;;
10277;SDS011;5184;51.376;7.148;2023-05-13T14:16:25;5.20;;;4.20;;
10277;SDS011;5184;51.376;7.148;2023-05-13T14:18:51;3.87;;;3.53;;
10277;SDS011;5184;51.376;7.148;2023-05-13T14:21:18;4.47;;;3.90;;
10277;SDS011;5184;51.376;7.148;2023-05-13T14:23:45;4.20;;;3.80;;
10277;SDS011;5184;51.376;7.148;2023-05-13T14:26:12;5.17;;;4.07;;
10277;SDS011;5184;51.376;7.148;2023-05-13T14:28:40;5.27;;;3.83;;
10277;SDS011;5184;51.376;7.148;2023-05-13T14:31:06;5.70;;;3.93;;
10277;SDS011;5184;51.376;7.148;2023-05-13T14:33:33;6.40;;;3.53;;
10277;SDS011;5184;51.376;7.148;2023-05-13T14:36:01;5.13;;;3.23;;
10277;SDS011;5184;51.376;7.148;2023-05-13T14:38:28;6.67;;;3.50;;
10277;SDS011;5184;51.376;7.148;2023-05-13T14:40:55;4.83;;;3.57;;
10277;SDS011;5184;51.376;7.148;2023-05-13T14:43:22;3.57;;;3.27;;
10277;SDS011;5184;51.376;7.148;2023-05-13T14:45:49;3.83;;;3.40;;
10277;SDS011;5184;51.376;7.148;2023-05-13T14:48:15;3.90;;;3.30;;
10277;SDS011;5184;51.376;7.148;2023-05-13T14:50:42;6.53;;;3.30;;
10277;SDS011;5184;51.376;7.148;2023-05-13T14:53:09;4.20;;;3.27;;
10277;SDS011;5184;51.376;7.148;2023-05-13T14:55:37;3.80;;;3.40;;
10277;SDS011;5184;51.376;7.148;2023-05-13T14:58:04;3.90;;;3.20;;
10277;SDS011;5184;51.376;7.148;2023-05-13T15:00:31;4.03;;;3.20;;